createdAt,value
2024-03-10T00:00:40.839Z,78.27
2024-03-10T00:03:08.637Z,78.12
2024-03-10T00:05:36.209Z,77.94
2024-03-10T00:08:03.253Z,77.50
2024-03-10T00:10:30.253Z,77.54
2024-03-10T00:12:57.117Z,77.51
2024-03-10T00:15:24.273Z,77.97
2024-03-10T00:17:52.166Z,77.73
2024-03-10T00:20:21.858Z,77.64
2024-03-10T00:22:52.009Z,77.86
2024-03-10T00:25:19.769Z,77.74
2024-03-10T00:27:46.811Z,77.88
2024-03-10T00:30:14.456Z,77.99
2024-03-10T00:32:41.339Z,77.65
2024-03-10T00:35:08.468Z,77.31
2024-03-10T00:37:35.927Z,77.41
2024-03-10T00:40:06.825Z,77.43
2024-03-10T00:42:33.694Z,77.22
2024-03-10T00:45:00.478Z,77.44
2024-03-10T00:47:27.519Z,76.91
2024-03-10T00:49:54.407Z,77.03
2024-03-10T00:52:21.139Z,77.12
2024-03-10T00:54:47.918Z,76.81
2024-03-10T00:57:15.721Z,76.84
2024-03-10T00:59:43.648Z,77.06
2024-03-10T01:02:10.619Z,77.16
2024-03-10T01:04:37.459Z,77.14
2024-03-10T01:07:05.001Z,77.13
2024-03-10T01:09:31.855Z,77.07
2024-03-10T01:11:58.714Z,77.15
2024-03-10T01:14:25.818Z,77.35
2024-03-10T01:16:52.615Z,77.46
2024-03-10T01:19:19.556Z,77.26
2024-03-10T01:21:46.927Z,77.56
2024-03-10T01:24:14.435Z,77.95
2024-03-10T01:26:41.198Z,78.15
2024-03-10T01:29:08.725Z,78.09
2024-03-10T01:31:35.555Z,78.22
2024-03-10T01:34:02.437Z,78.25
2024-03-10T01:36:29.767Z,77.72
2024-03-10T01:38:56.881Z,78.15
2024-03-10T01:41:23.836Z,77.94
2024-03-10T01:43:52.191Z,77.75
2024-03-10T01:46:19.282Z,78.16
2024-03-10T01:48:46.091Z,78.15
2024-03-10T01:51:16.655Z,78.37
2024-03-10T01:53:43.986Z,78.80
2024-03-10T01:56:15.020Z,78.47
2024-03-10T01:58:46.067Z,78.65
2024-03-10T02:01:15.278Z,78.27
2024-03-10T02:03:44.376Z,78.78
2024-03-10T02:06:11.174Z,78.62
2024-03-10T02:08:39.164Z,78.45
2024-03-10T02:11:12.209Z,79.03
2024-03-10T02:13:42.262Z,78.89
2024-03-10T02:16:12.364Z,78.68
2024-03-10T02:18:39.690Z,78.92
2024-03-10T02:21:10.592Z,79.39
2024-03-10T02:23:41.959Z,78.69
2024-03-10T02:26:10.279Z,78.97
2024-03-10T02:28:47.800Z,79.03
2024-03-10T02:31:33.711Z,78.87
2024-03-10T02:34:19.140Z,78.81
2024-03-10T02:37:04.542Z,78.72
2024-03-10T02:39:49.994Z,79.00
2024-03-10T02:42:35.383Z,78.88
2024-03-10T02:45:20.708Z,78.85
2024-03-10T02:47:47.545Z,78.43
2024-03-10T02:50:14.447Z,78.62
2024-03-10T02:52:41.281Z,78.54
2024-03-10T02:55:10.107Z,78.74
2024-03-10T02:57:36.848Z,78.77
2024-03-10T03:00:03.982Z,78.69
2024-03-10T03:02:31.289Z,78.48
2024-03-10T03:04:58.416Z,78.40
2024-03-10T03:07:25.354Z,78.88
2024-03-10T03:09:52.123Z,79.13
2024-03-10T03:12:19.004Z,79.00
2024-03-10T03:14:45.834Z,79.28
2024-03-10T03:17:12.590Z,79.00
2024-03-10T03:19:39.492Z,78.82
2024-03-10T03:22:06.532Z,78.96
2024-03-10T03:24:33.306Z,79.17
2024-03-10T03:27:00.204Z,79.34
2024-03-10T03:29:27.258Z,79.94
2024-03-10T03:31:54.112Z,80.31
2024-03-10T03:34:21.312Z,80.17
2024-03-10T03:36:48.492Z,80.31
2024-03-10T03:39:16.658Z,80.34
2024-03-10T03:41:43.528Z,79.97
2024-03-10T03:44:10.290Z,80.41
2024-03-10T03:46:37.168Z,80.47
2024-03-10T03:49:04.148Z,80.37
2024-03-10T03:51:30.857Z,80.13
2024-03-10T03:53:57.963Z,80.80
2024-03-10T03:56:24.793Z,80.71
2024-03-10T03:58:51.690Z,80.74
2024-03-10T04:01:19.114Z,80.85
2024-03-10T04:03:45.879Z,80.62
2024-03-10T04:06:12.738Z,80.94
2024-03-10T04:08:39.508Z,80.58
2024-03-10T04:11:06.309Z,80.79
2024-03-10T04:13:33.150Z,80.96
2024-03-10T04:15:59.877Z,81.21
2024-03-10T04:18:27.949Z,81.34
2024-03-10T04:20:54.869Z,81.38
2024-03-10T04:23:23.161Z,81.56
2024-03-10T04:25:49.943Z,81.57
2024-03-10T04:28:17.262Z,81.05
2024-03-10T04:30:43.984Z,81.86
2024-03-10T04:33:10.817Z,81.87
2024-03-10T04:35:39.599Z,81.51
2024-03-10T04:38:06.558Z,81.77
2024-03-10T04:40:33.316Z,81.62
2024-03-10T04:43:00.064Z,81.37
2024-03-10T04:45:27.255Z,81.50
2024-03-10T04:47:54.167Z,81.49
2024-03-10T04:50:22.574Z,81.54
2024-03-10T04:52:49.472Z,81.70
2024-03-10T04:55:16.364Z,81.70
2024-03-10T04:57:43.196Z,81.82
2024-03-10T05:00:13.727Z,81.99
2024-03-10T05:02:40.453Z,81.88
2024-03-10T05:05:08.587Z,81.92
2024-03-10T05:07:35.384Z,82.14
2024-03-10T05:10:02.216Z,81.98
2024-03-10T05:12:29.502Z,81.64
2024-03-10T05:14:56.246Z,82.24
2024-03-10T05:17:23.064Z,82.06
2024-03-10T05:19:49.940Z,82.04
2024-03-10T05:22:18.521Z,82.00
2024-03-10T05:24:45.293Z,82.49
2024-03-10T05:27:12.177Z,82.28
2024-03-10T05:29:38.929Z,82.16
2024-03-10T05:32:06.089Z,82.29
2024-03-10T05:34:33.834Z,81.72
2024-03-10T05:37:00.879Z,81.72
2024-03-10T05:39:28.982Z,81.41
2024-03-10T05:41:55.896Z,81.39
2024-03-10T05:44:22.742Z,81.86
2024-03-10T05:46:49.758Z,81.91
2024-03-10T05:49:16.490Z,81.93
2024-03-10T05:51:43.271Z,82.60
2024-03-10T05:54:10.679Z,82.78
2024-03-10T05:56:37.593Z,82.69
2024-03-10T05:59:04.631Z,83.00
2024-03-10T06:01:31.540Z,83.38
2024-03-10T06:03:58.333Z,83.11
2024-03-10T06:06:25.042Z,83.07
2024-03-10T06:08:51.840Z,83.28
2024-03-10T06:11:20.308Z,83.07
2024-03-10T06:13:47.456Z,83.28
2024-03-10T06:16:14.369Z,83.44
2024-03-10T06:18:57.245Z,83.36
2024-03-10T06:21:45.238Z,83.75
2024-03-10T06:24:31.760Z,83.63
2024-03-10T06:26:59.382Z,83.78
2024-03-10T06:29:26.386Z,84.04
2024-03-10T06:31:53.399Z,84.18
2024-03-10T06:34:23.313Z,83.97
2024-03-10T06:36:50.592Z,84.03
2024-03-10T06:39:21.105Z,84.13
2024-03-10T06:41:48.432Z,84.18
2024-03-10T06:44:20.672Z,84.08
2024-03-10T06:46:47.514Z,83.74
2024-03-10T06:49:15.958Z,83.88
2024-03-10T06:51:42.975Z,83.88
2024-03-10T06:54:09.767Z,84.35
2024-03-10T06:56:38.015Z,84.65
2024-03-10T06:59:05.099Z,84.03
2024-03-10T07:01:32.485Z,84.09
2024-03-10T07:03:59.933Z,84.02
2024-03-10T07:06:28.438Z,84.07
2024-03-10T07:08:55.806Z,83.93
2024-03-10T07:11:23.551Z,83.43
2024-03-10T07:13:50.539Z,82.98
2024-03-10T07:16:17.460Z,83.04
2024-03-10T07:18:44.302Z,82.78
2024-03-10T07:21:11.650Z,82.71
2024-03-10T07:23:38.491Z,82.47
2024-03-10T07:26:05.342Z,82.85
2024-03-10T07:28:32.986Z,82.98
2024-03-10T07:31:01.176Z,83.55
2024-03-10T07:33:28.292Z,83.34
2024-03-10T07:35:55.132Z,83.78
2024-03-10T07:38:22.096Z,83.62
2024-03-10T07:40:54.295Z,82.93
2024-03-10T07:43:24.343Z,83.05
2024-03-10T07:45:51.740Z,83.21
2024-03-10T07:48:18.637Z,83.04
2024-03-10T07:50:45.494Z,82.52
2024-03-10T07:53:12.297Z,82.87
2024-03-10T07:55:39.112Z,83.17
2024-03-10T07:58:08.690Z,82.96
2024-03-10T08:00:38.649Z,82.56
2024-03-10T08:03:05.808Z,82.39
2024-03-10T08:05:32.693Z,82.21
2024-03-10T08:07:59.523Z,82.17
2024-03-10T08:10:26.998Z,82.14
2024-03-10T08:12:53.758Z,82.39
2024-03-10T08:15:21.232Z,83.09
2024-03-10T08:17:48.293Z,82.44
2024-03-10T08:20:16.659Z,82.67
2024-03-10T08:22:44.567Z,82.67
2024-03-10T08:25:14.307Z,82.66
2024-03-10T08:27:41.944Z,82.61
2024-03-10T08:30:11.766Z,82.07
2024-03-10T08:32:39.416Z,81.72
2024-03-10T08:35:14.257Z,81.18
2024-03-10T08:37:47.008Z,81.72
2024-03-10T08:40:17.355Z,81.66
2024-03-10T08:42:44.638Z,81.88
2024-03-10T08:45:13.134Z,81.42
2024-03-10T08:47:40.765Z,81.62
2024-03-10T08:50:11.995Z,81.44
2024-03-10T08:52:40.310Z,81.20
2024-03-10T08:55:08.815Z,80.75
2024-03-10T08:57:37.422Z,80.60
2024-03-10T09:00:05.859Z,79.78
2024-03-10T09:02:33.214Z,79.44
2024-03-10T09:05:01.021Z,79.24
2024-03-10T09:07:29.795Z,79.26
2024-03-10T09:09:56.562Z,78.88
2024-03-10T09:12:23.501Z,78.69
2024-03-10T09:14:51.368Z,78.41
2024-03-10T09:17:19.790Z,78.35
2024-03-10T09:19:47.587Z,78.36
2024-03-10T09:22:15.098Z,77.69
2024-03-10T09:24:44.165Z,78.00
2024-03-10T09:27:11.376Z,78.15
2024-03-10T09:29:38.913Z,77.51
2024-03-10T09:32:07.931Z,77.44
2024-03-10T09:34:38.190Z,77.46
2024-03-10T09:37:08.212Z,76.77
2024-03-10T09:39:36.268Z,76.32
2024-03-10T09:42:05.651Z,76.63
2024-03-10T09:44:34.239Z,76.51
2024-03-10T09:47:02.397Z,75.74
2024-03-10T09:49:29.305Z,75.56
2024-03-10T09:51:58.658Z,75.05
2024-03-10T09:54:26.987Z,75.03
2024-03-10T09:56:54.281Z,75.03
2024-03-10T09:59:45.162Z,74.93
2024-03-10T10:02:33.536Z,74.90
2024-03-10T10:05:04.281Z,74.11
2024-03-10T10:07:31.228Z,74.11
2024-03-10T10:09:59.720Z,73.92
2024-03-10T10:12:27.983Z,73.52
2024-03-10T10:14:55.254Z,73.34
2024-03-10T10:17:23.832Z,73.12
2024-03-10T10:19:52.426Z,73.23
2024-03-10T10:22:22.206Z,73.12
2024-03-10T10:25:07.955Z,72.75
2024-03-10T10:27:50.672Z,72.96
2024-03-10T10:30:23.937Z,72.62
2024-03-10T10:33:04.753Z,72.73
2024-03-10T10:35:35.981Z,72.58
2024-03-10T10:38:12.890Z,72.06
2024-03-10T10:40:56.023Z,71.62
2024-03-10T10:43:22.941Z,71.60
2024-03-10T10:45:50.245Z,71.12
2024-03-10T10:48:17.713Z,70.73
2024-03-10T10:50:44.975Z,70.41
2024-03-10T10:53:13.723Z,69.37
2024-03-10T10:55:41.946Z,68.14
2024-03-10T10:58:13.282Z,67.61
2024-03-10T11:00:44.348Z,66.95
2024-03-10T11:03:16.388Z,66.21
2024-03-10T11:06:03.480Z,65.37
2024-03-10T11:08:38.057Z,64.04
2024-03-10T11:11:05.432Z,64.03
2024-03-10T11:13:35.864Z,62.88
2024-03-10T11:16:15.869Z,62.31
2024-03-10T11:18:43.591Z,62.43
2024-03-10T11:21:21.492Z,61.37
2024-03-10T11:23:50.747Z,60.98
2024-03-10T11:26:25.545Z,60.69
2024-03-10T11:29:01.606Z,60.67
2024-03-10T11:31:28.367Z,60.71
2024-03-10T11:33:57.700Z,60.55
2024-03-10T11:36:25.464Z,60.83
2024-03-10T11:38:55.907Z,60.99
2024-03-10T11:41:24.982Z,61.40
2024-03-10T11:43:55.059Z,61.58
2024-03-10T11:46:37.254Z,61.29
2024-03-10T11:49:04.117Z,61.69
2024-03-10T11:51:33.017Z,61.33
2024-03-10T11:54:00.961Z,61.33
2024-03-10T11:56:27.834Z,61.22
2024-03-10T11:58:59.321Z,60.73
2024-03-10T12:01:30.510Z,60.77
2024-03-10T12:03:59.648Z,61.01
2024-03-10T12:06:28.389Z,60.82
2024-03-10T12:08:55.624Z,60.92
2024-03-10T12:11:27.408Z,60.79
2024-03-10T12:13:54.759Z,61.19
2024-03-10T12:16:23.693Z,61.51
2024-03-10T12:18:51.355Z,61.13
2024-03-10T12:21:20.183Z,61.33
2024-03-10T12:23:47.714Z,61.03
2024-03-10T12:26:16.123Z,60.66
2024-03-10T12:28:44.939Z,60.86
2024-03-10T12:31:16.068Z,60.68
2024-03-10T12:33:47.542Z,59.84
2024-03-10T12:36:14.526Z,59.36
2024-03-10T12:38:42.148Z,59.39
2024-03-10T12:41:09.798Z,59.76
2024-03-10T12:43:38.220Z,59.56
2024-03-10T12:46:05.935Z,59.66
2024-03-10T12:48:35.858Z,59.88
2024-03-10T12:51:07.421Z,59.85
2024-03-10T12:53:35.043Z,59.18
2024-03-10T12:56:21.177Z,59.92
2024-03-10T12:58:48.320Z,58.86
2024-03-10T13:01:18.298Z,58.39
2024-03-10T13:03:45.891Z,57.55
2024-03-10T13:06:16.340Z,57.72
2024-03-10T13:08:45.148Z,57.30
2024-03-10T13:11:15.229Z,57.27
2024-03-10T13:13:42.988Z,57.24
2024-03-10T13:16:10.585Z,56.94
2024-03-10T13:18:37.503Z,57.31
2024-03-10T13:21:04.521Z,57.27
2024-03-10T13:23:31.602Z,57.40
2024-03-10T13:25:58.473Z,56.92
2024-03-10T13:28:25.338Z,56.96
2024-03-10T13:30:52.177Z,57.37
2024-03-10T13:33:20.113Z,56.64
2024-03-10T13:35:47.385Z,56.51
2024-03-10T13:38:14.323Z,56.61
2024-03-10T13:40:41.083Z,56.81
2024-03-10T13:43:08.171Z,56.39
2024-03-10T13:45:39.706Z,56.48
2024-03-10T13:48:10.104Z,56.58
2024-03-10T13:50:37.658Z,56.29
2024-03-10T13:53:06.753Z,56.74
2024-03-10T13:55:34.078Z,56.60
2024-03-10T13:58:01.087Z,56.84
2024-03-10T14:00:27.924Z,57.00
2024-03-10T14:02:56.063Z,57.41
2024-03-10T14:05:23.766Z,57.46
2024-03-10T14:07:50.667Z,57.78
2024-03-10T14:10:20.814Z,58.01
2024-03-10T14:12:47.684Z,58.26
2024-03-10T14:15:16.868Z,58.03
2024-03-10T14:17:46.863Z,58.19
2024-03-10T14:20:15.703Z,57.97
2024-03-10T14:22:47.409Z,58.48
2024-03-10T14:25:14.620Z,58.32
2024-03-10T14:27:46.488Z,57.82
2024-03-10T14:30:14.497Z,57.13
2024-03-10T14:32:42.115Z,56.46
2024-03-10T14:35:10.724Z,56.33
2024-03-10T14:37:41.286Z,56.11
2024-03-10T14:40:16.592Z,56.34
2024-03-10T14:42:43.881Z,56.73
2024-03-10T14:45:11.813Z,57.10
2024-03-10T14:47:39.632Z,57.09
2024-03-10T14:50:07.287Z,57.25
2024-03-10T14:52:34.108Z,57.21
2024-03-10T14:55:05.702Z,57.89
2024-03-10T14:57:32.870Z,58.12
2024-03-10T15:00:01.482Z,58.65
2024-03-10T15:02:28.680Z,58.65
2024-03-10T15:04:55.480Z,58.70
2024-03-10T15:07:24.307Z,59.04
2024-03-10T15:09:51.065Z,59.44
2024-03-10T15:12:17.900Z,59.77
2024-03-10T15:14:47.950Z,60.09
2024-03-10T15:17:15.857Z,59.96
2024-03-10T15:19:42.664Z,59.92
2024-03-10T15:22:09.491Z,60.32
2024-03-10T15:24:37.984Z,60.37
2024-03-10T15:27:08.095Z,60.35
2024-03-10T15:29:36.117Z,60.72
2024-03-10T15:32:04.138Z,60.79
2024-03-10T15:34:31.923Z,61.05
2024-03-10T15:37:00.686Z,60.80
2024-03-10T15:39:29.733Z,61.14
2024-03-10T15:41:58.166Z,61.10
2024-03-10T15:44:29.140Z,61.24
2024-03-10T15:46:57.762Z,61.06
2024-03-10T15:49:24.514Z,61.29
2024-03-10T15:51:51.656Z,61.07
2024-03-10T15:54:18.434Z,61.12
2024-03-10T15:56:45.285Z,60.63
2024-03-10T15:59:12.154Z,60.99
2024-03-10T16:01:39.455Z,60.91
2024-03-10T16:04:08.114Z,60.83
2024-03-10T16:06:36.011Z,60.63
2024-03-10T16:09:05.768Z,60.53
2024-03-10T16:11:34.044Z,60.81
2024-03-10T16:14:07.291Z,60.71
2024-03-10T16:16:34.406Z,60.94
2024-03-10T16:19:01.098Z,61.39
2024-03-10T16:21:32.619Z,61.19
2024-03-10T16:23:59.410Z,61.76
2024-03-10T16:26:26.593Z,62.20
2024-03-10T16:28:53.350Z,62.27
2024-03-10T16:31:20.210Z,63.06
2024-03-10T16:33:47.198Z,63.14
2024-03-10T16:36:14.253Z,63.26
2024-03-10T16:38:44.730Z,63.67
2024-03-10T16:41:12.576Z,63.96
2024-03-10T16:43:39.943Z,63.50
2024-03-10T16:46:07.504Z,64.15
2024-03-10T16:48:34.647Z,64.19
2024-03-10T16:51:01.637Z,64.69
2024-03-10T16:53:28.523Z,64.95
2024-03-10T16:55:56.490Z,64.74
2024-03-10T16:58:24.147Z,65.32
2024-03-10T17:00:52.208Z,65.40
2024-03-10T17:03:19.094Z,65.65
2024-03-10T17:05:46.097Z,65.65
2024-03-10T17:08:18.367Z,65.95
2024-03-10T17:10:48.408Z,66.41
2024-03-10T17:13:15.473Z,66.84
2024-03-10T17:15:43.725Z,66.80
2024-03-10T17:18:10.682Z,67.02
2024-03-10T17:20:37.888Z,67.07
2024-03-10T17:23:04.995Z,67.67
2024-03-10T17:25:31.873Z,68.18
2024-03-10T17:27:59.292Z,68.23
2024-03-10T17:30:26.146Z,68.56
2024-03-10T17:32:55.136Z,68.67
2024-03-10T17:35:22.604Z,69.14
2024-03-10T17:37:49.609Z,69.21
2024-03-10T17:40:16.940Z,69.53
2024-03-10T17:42:44.546Z,69.97
2024-03-10T17:45:13.044Z,70.35
2024-03-10T17:47:40.513Z,70.66
2024-03-10T17:50:09.344Z,70.74
2024-03-10T17:52:37.061Z,70.73
2024-03-10T17:55:08.020Z,70.85
2024-03-10T17:57:36.530Z,71.37
2024-03-10T18:00:08.314Z,71.71
2024-03-10T18:02:35.882Z,71.72
2024-03-10T18:05:05.248Z,71.79
2024-03-10T18:07:32.923Z,72.11
2024-03-10T18:10:00.600Z,72.45
2024-03-10T18:12:27.682Z,72.07
2024-03-10T18:14:55.135Z,72.51
2024-03-10T18:17:22.458Z,72.71
2024-03-10T18:19:51.051Z,73.32
2024-03-10T18:22:17.966Z,73.09
2024-03-10T18:24:45.617Z,73.40
2024-03-10T18:27:13.257Z,73.58
2024-03-10T18:29:43.096Z,73.66
2024-03-10T18:32:09.987Z,73.94
2024-03-10T18:34:36.827Z,73.92
2024-03-10T18:37:05.449Z,74.31
2024-03-10T18:39:34.198Z,74.55
2024-03-10T18:42:02.170Z,74.55
2024-03-10T18:44:29.210Z,74.57
2024-03-10T18:46:56.297Z,74.98
2024-03-10T18:49:25.431Z,75.38
2024-03-10T18:51:52.180Z,75.29
2024-03-10T18:54:19.515Z,75.71
2024-03-10T18:56:46.789Z,75.79
2024-03-10T18:59:14.109Z,76.02
2024-03-10T19:01:42.692Z,75.67
2024-03-10T19:04:12.851Z,76.24
2024-03-10T19:06:39.712Z,76.23
2024-03-10T19:09:09.933Z,76.30
2024-03-10T19:11:36.998Z,76.29
2024-03-10T19:14:05.611Z,76.44
2024-03-10T19:16:32.498Z,77.13
2024-03-10T19:18:59.279Z,76.91
2024-03-10T19:21:26.698Z,76.97
2024-03-10T19:23:53.634Z,77.18
2024-03-10T19:26:20.541Z,77.40
2024-03-10T19:28:48.305Z,77.24
2024-03-10T19:31:15.135Z,77.81
2024-03-10T19:33:41.998Z,77.87
2024-03-10T19:36:12.245Z,77.78
2024-03-10T19:38:39.326Z,78.08
2024-03-10T19:41:06.179Z,77.99
2024-03-10T19:43:32.995Z,78.17
2024-03-10T19:46:00.102Z,78.21
2024-03-10T19:48:26.879Z,78.44
2024-03-10T19:50:55.081Z,78.40
2024-03-10T19:53:23.444Z,78.32
2024-03-10T19:55:52.312Z,78.58
2024-03-10T19:58:19.585Z,78.90
2024-03-10T20:00:48.745Z,78.84
2024-03-10T20:03:16.151Z,78.90
2024-03-10T20:05:46.441Z,79.37
2024-03-10T20:08:16.733Z,79.51
2024-03-10T20:10:43.648Z,80.01
2024-03-10T20:13:13.336Z,79.69
2024-03-10T20:15:40.150Z,79.57
2024-03-10T20:18:07.222Z,79.87
2024-03-10T20:20:34.880Z,79.87
2024-03-10T20:23:02.025Z,79.87
2024-03-10T20:25:29.373Z,80.17
2024-03-10T20:28:00.241Z,79.93
2024-03-10T20:30:31.723Z,80.34
2024-03-10T20:32:59.491Z,80.34
2024-03-10T20:35:28.257Z,80.21
2024-03-10T20:37:56.424Z,80.86
2024-03-10T20:40:23.300Z,80.50
2024-03-10T20:42:50.097Z,80.79
2024-03-10T20:45:16.985Z,81.13
2024-03-10T20:47:47.115Z,81.33
2024-03-10T20:50:15.764Z,81.61
2024-03-10T20:52:43.947Z,82.10
2024-03-10T20:55:12.371Z,81.86
2024-03-10T20:57:40.168Z,82.40
2024-03-10T21:00:11.715Z,82.05
2024-03-10T21:02:39.120Z,81.84
2024-03-10T21:05:06.130Z,81.91
2024-03-10T21:07:32.918Z,82.05
2024-03-10T21:10:00.593Z,82.51
2024-03-10T21:12:27.446Z,82.32
2024-03-10T21:14:54.274Z,82.08
2024-03-10T21:17:21.924Z,82.34
2024-03-10T21:19:48.778Z,82.61
2024-03-10T21:22:20.494Z,82.87
2024-03-10T21:24:47.250Z,83.22
2024-03-10T21:27:14.147Z,83.35
2024-03-10T21:29:40.930Z,83.54
2024-03-10T21:32:09.174Z,83.14
2024-03-10T21:34:36.347Z,83.24
2024-03-10T21:37:05.140Z,83.16
2024-03-10T21:39:32.745Z,83.45
2024-03-10T21:41:59.590Z,83.74
2024-03-10T21:44:26.434Z,83.88
2024-03-10T21:46:53.616Z,83.52
2024-03-10T21:49:20.372Z,83.97
2024-03-10T21:51:47.171Z,84.59
2024-03-10T21:54:13.989Z,84.53
2024-03-10T21:56:41.754Z,85.19
2024-03-10T21:59:08.737Z,85.31
2024-03-10T22:01:36.447Z,84.97
2024-03-10T22:04:06.154Z,84.73
2024-03-10T22:06:33.754Z,85.07
2024-03-10T22:09:00.942Z,85.09
2024-03-10T22:11:28.049Z,84.88
2024-03-10T22:13:56.626Z,85.79
2024-03-10T22:16:23.511Z,86.33
2024-03-10T22:18:50.270Z,86.97
2024-03-10T22:21:17.982Z,87.31
2024-03-10T22:23:44.890Z,86.86
2024-03-10T22:26:11.861Z,86.95
2024-03-10T22:28:38.639Z,87.38
2024-03-10T22:31:06.739Z,87.67
2024-03-10T22:33:33.560Z,88.01
2024-03-10T22:36:00.893Z,87.88
2024-03-10T22:38:27.721Z,88.22
2024-03-10T22:40:54.517Z,88.34
2024-03-10T22:43:24.798Z,88.58
2024-03-10T22:45:51.598Z,88.42
2024-03-10T22:48:18.925Z,88.63
2024-03-10T22:50:46.586Z,89.06
2024-03-10T22:53:13.513Z,89.19
2024-03-10T22:55:41.516Z,89.12
2024-03-10T22:58:08.802Z,88.91
2024-03-10T23:00:38.488Z,89.37
2024-03-10T23:03:08.808Z,89.72
2024-03-10T23:05:36.675Z,90.39
2024-03-10T23:08:06.398Z,90.76
2024-03-10T23:10:36.016Z,91.03
2024-03-10T23:13:05.568Z,91.43
2024-03-10T23:15:33.978Z,91.51
2024-03-10T23:18:01.653Z,91.18
2024-03-10T23:20:29.091Z,91.54
2024-03-10T23:23:01.451Z,91.33
2024-03-10T23:25:31.499Z,91.41
2024-03-10T23:28:01.407Z,91.91
2024-03-10T23:30:28.243Z,91.87
2024-03-10T23:32:56.411Z,92.15
2024-03-10T23:35:23.650Z,91.97
2024-03-10T23:37:50.656Z,92.07
2024-03-10T23:40:17.830Z,92.59
2024-03-10T23:42:45.508Z,92.71
2024-03-10T23:45:15.548Z,92.33
2024-03-10T23:47:45.080Z,91.72
2024-03-10T23:50:15.525Z,91.31
2024-03-10T23:52:44.115Z,92.28
2024-03-10T23:55:13.575Z,92.94
2024-03-10T23:57:41.216Z,93.12
